Time;durP1;ratioP1;P1;durP2;ratioP2;P2;SDS_P1;SDS_P2;PMS_P1;PMS_P2;Temp;Humidity;BMP_temperature;BMP_pressure;BME280_temperature;BME280_humidity;BME280_pressure;Samples;Min_cycle;Max_cycle;Signal;HPM_P1;HPM_P2
2021/09/07 00:00:40;;;;;;;46.13;27.15;;;;;;;12.83;91.66;102611.94;4996624;28;20109;-72
2021/09/07 00:03:05;;;;;;;52.67;27.48;;;;;;;12.82;92.04;102609.38;5012025;28;20030;-73
2021/09/07 00:05:31;;;;;;;45.42;26.08;;;;;;;12.79;91.65;102610.44;4994706;28;20046;-73
2021/09/07 00:07:56;;;;;;;44.83;26.05;;;;;;;12.78;91.67;102607.91;4996629;28;20039;-72
2021/09/07 00:10:22;;;;;;;44.35;26.55;;;;;;;12.75;91.50;102605.44;4995951;28;20036;-73
2021/09/07 00:12:49;;;;;;;42.88;25.45;;;;;;;12.73;91.30;102610.91;4995191;28;20426;-73
2021/09/07 00:15:16;;;;;;;44.05;26.42;;;;;;;12.71;91.37;102607.50;4996528;28;20110;-72
2021/09/07 00:17:42;;;;;;;45.63;25.83;;;;;;;12.70;91.42;102600.44;4995931;28;20467;-72
2021/09/07 00:20:08;;;;;;;55.50;29.02;;;;;;;12.72;92.60;102601.19;4996377;28;20030;-72
2021/09/07 00:22:34;;;;;;;56.25;29.27;;;;;;;12.68;93.02;102600.56;4995572;28;20036;-73
2021/09/07 00:25:00;;;;;;;55.33;29.80;;;;;;;12.67;93.67;102601.53;4996262;28;20352;-72
2021/09/07 00:27:26;;;;;;;47.75;27.05;;;;;;;12.62;92.87;102598.31;4995390;28;20447;-73
2021/09/07 00:29:51;;;;;;;47.63;26.15;;;;;;;12.58;93.16;102586.16;4995898;28;20085;-73
2021/09/07 00:32:17;;;;;;;50.85;26.55;;;;;;;12.56;92.61;102588.09;4996502;28;20049;-73
2021/09/07 00:34:42;;;;;;;48.90;25.15;;;;;;;12.52;92.90;102590.13;4995522;28;20081;-73
2021/09/07 00:37:07;;;;;;;42.28;24.70;;;;;;;12.49;92.27;102594.81;4996086;28;20034;-73
2021/09/07 00:39:33;;;;;;;48.15;25.33;;;;;;;12.47;92.43;102596.75;4995448;28;20430;-73
2021/09/07 00:41:58;;;;;;;49.25;26.80;;;;;;;12.47;92.40;102588.75;4996071;28;20041;-73
2021/09/07 00:44:24;;;;;;;51.67;28.10;;;;;;;12.46;92.64;102587.03;4995143;28;20455;-72
2021/09/07 00:46:54;;;;;;;47.45;25.58;;;;;;;12.44;92.71;102580.94;4996100;28;20466;-72
2021/09/07 00:49:20;;;;;;;59.47;29.90;;;;;;;12.44;92.83;102578.28;4995907;28;20435;-72
2021/09/07 00:51:47;;;;;;;58.13;29.27;;;;;;;12.43;93.45;102579.25;4995128;28;20039;-72
2021/09/07 00:54:13;;;;;;;49.78;27.67;;;;;;;12.41;93.52;102583.84;4995438;28;20077;-72
2021/09/07 00:56:40;;;;;;;51.53;28.27;;;;;;;12.41;93.55;102578.50;4995215;28;20443;-72
2021/09/07 00:59:07;;;;;;;50.85;26.63;;;;;;;12.38;93.33;102581.41;4994306;28;20042;-72
2021/09/07 01:01:33;;;;;;;49.83;28.40;;;;;;;12.35;93.07;102580.63;4994981;28;20030;-74
2021/09/07 01:03:58;;;;;;;65.93;32.28;;;;;;;12.35;93.22;102575.28;4995454;28;20111;-72
2021/09/07 01:06:24;;;;;;;55.50;30.25;;;;;;;12.35;93.98;102580.63;4995507;28;20034;-72
2021/09/07 01:08:49;;;;;;;50.40;27.92;;;;;;;12.33;93.64;102577.22;4994088;28;20467;-72
2021/09/07 01:11:18;;;;;;;59.17;29.58;;;;;;;12.31;93.57;102568.44;4995514;28;20081;-72
2021/09/07 01:13:44;;;;;;;58.95;30.90;;;;;;;12.29;93.45;102575.72;4994736;28;20030;-72
2021/09/07 01:16:09;;;;;;;50.90;27.67;;;;;;;12.27;93.79;102567.00;4995431;28;20105;-72
2021/09/07 01:18:34;;;;;;;62.45;31.33;;;;;;;12.26;94.10;102570.59;4994677;28;20027;-73
2021/09/07 01:21:00;;;;;;;53.35;27.52;;;;;;;12.24;93.85;102572.53;4995420;28;20415;-73
2021/09/07 01:23:26;;;;;;;48.67;26.25;;;;;;;12.21;93.43;102566.53;4994969;28;20035;-72
2021/09/07 01:25:52;;;;;;;53.20;29.45;;;;;;;12.19;93.39;102569.31;4994698;28;20042;-73
2021/09/07 01:28:18;;;;;;;62.58;32.35;;;;;;;12.19;93.46;102566.66;4995225;28;20122;-72
2021/09/07 01:30:44;;;;;;;58.55;30.77;;;;;;;12.18;93.79;102567.59;4994461;28;20422;-74
2021/09/07 01:33:11;;;;;;;60.75;32.70;;;;;;;12.15;93.53;102563.38;4994844;28;20118;-74
2021/09/07 01:35:39;;;;;;;61.67;31.08;;;;;;;12.14;93.63;102564.31;4994421;28;20073;-74
2021/09/07 01:38:04;;;;;;;60.35;29.13;;;;;;;12.14;93.93;102564.31;4995140;28;20034;-73
2021/09/07 01:40:29;;;;;;;85.95;37.65;;;;;;;12.16;94.17;102561.53;4994451;28;20469;-75
2021/09/07 01:42:55;;;;;;;64.78;33.25;;;;;;;12.13;94.36;102554.59;4994657;28;20109;-74
2021/09/07 01:45:20;;;;;;;57.83;30.88;;;;;;;12.11;94.30;102553.84;4994526;28;20374;-74
2021/09/07 01:47:46;;;;;;;66.78;33.42;;;;;;;12.08;94.49;102551.41;4994305;28;20121;-74
2021/09/07 01:50:12;;;;;;;64.70;32.28;;;;;;;12.06;94.44;102553.34;4994765;28;20041;-74
2021/09/07 01:52:37;;;;;;;86.47;38.00;;;;;;;12.05;94.35;102559.63;4992748;28;20030;-74
2021/09/07 01:55:03;;;;;;;63.50;32.47;;;;;;;12.02;94.64;102558.97;4994657;28;20041;-74
2021/09/07 01:57:29;;;;;;;66.95;33.00;;;;;;;12.00;93.82;102553.75;5009635;28;20058;-73
2021/09/07 01:59:54;;;;;;;57.42;30.67;;;;;;;11.98;93.99;102553.84;4993854;28;20076;-73
2021/09/07 02:02:19;;;;;;;80.22;37.13;;;;;;;11.99;93.81;102554.72;4994557;28;20030;-73
2021/09/07 02:04:46;;;;;;;64.18;31.98;;;;;;;11.97;93.97;102562.84;4993564;28;20055;-74
2021/09/07 02:07:12;;;;;;;63.05;31.63;;;;;;;11.97;94.25;102564.63;4994417;28;20033;-74
2021/09/07 02:09:37;;;;;;;66.38;31.15;;;;;;;11.94;93.89;102563.03;4993755;28;20046;-74
2021/09/07 02:12:03;;;;;;;72.32;34.95;;;;;;;11.95;93.95;102566.56;4994143;28;20030;-73
2021/09/07 02:14:29;;;;;;;61.42;31.42;;;;;;;11.94;94.11;102564.84;4994605;28;20036;-74
2021/09/07 02:16:54;;;;;;;64.05;31.48;;;;;;;11.94;94.35;102562.16;4993624;28;20455;-72
2021/09/07 02:19:20;;;;;;;61.15;31.50;;;;;;;11.91;94.16;102567.69;4994120;28;20058;-72
2021/09/07 02:21:45;;;;;;;65.70;32.85;;;;;;;11.90;94.29;102558.84;4993529;28;20034;-72
2021/09/07 02:24:11;;;;;;;65.63;32.42;;;;;;;11.89;94.22;102565.13;4994309;28;20041;-72
2021/09/07 02:26:36;;;;;;;63.45;31.75;;;;;;;11.88;94.05;102554.56;5008883;28;20451;-73
2021/09/07 02:29:02;;;;;;;62.88;31.90;;;;;;;11.87;94.18;102551.06;4994305;28;20417;-74
2021/09/07 02:31:27;;;;;;;71.65;33.97;;;;;;;11.85;94.18;102560.94;4993990;28;20109;-72
2021/09/07 02:33:53;;;;;;;76.63;36.05;;;;;;;11.83;94.26;102560.22;4993035;28;20023;-72
2021/09/07 02:36:20;;;;;;;87.00;40.03;;;;;;;11.82;94.21;102553.16;4994103;28;20034;-72
2021/09/07 02:38:46;;;;;;;68.95;35.03;;;;;;;11.80;94.28;102555.94;4993189;28;20033;-72
2021/09/07 02:41:11;;;;;;;64.95;33.25;;;;;;;11.79;94.25;102564.03;4992753;28;20038;-72
2021/09/07 02:43:38;;;;;;;66.03;33.10;;;;;;;11.77;94.36;102557.97;4993805;28;20113;-72
2021/09/07 02:46:05;;;;;;;65.07;33.05;;;;;;;11.76;94.13;102562.47;4993218;28;20359;-72
2021/09/07 02:48:30;;;;;;;73.63;34.15;;;;;;;11.76;94.16;102561.59;4993668;28;20026;-72
2021/09/07 02:50:55;;;;;;;66.90;33.05;;;;;;;11.74;94.10;102558.19;4992682;28;20049;-72
2021/09/07 02:53:21;;;;;;;64.90;33.10;;;;;;;11.72;94.27;102560.97;4993718;28;20030;-72
2021/09/07 02:55:46;;;;;;;67.60;32.92;;;;;;;11.71;94.37;102561.06;4992918;28;20026;-73
2021/09/07 02:58:11;;;;;;;64.78;32.15;;;;;;;11.69;94.15;102557.63;4993591;28;20056;-72
2021/09/07 03:00:37;;;;;;;82.60;36.10;;;;;;;11.67;94.36;102554.22;4993483;28;20026;-72
2021/09/07 03:03:02;;;;;;;75.57;35.03;;;;;;;11.66;94.37;102553.38;4992486;28;20084;-72
2021/09/07 03:05:28;;;;;;;88.50;39.05;;;;;;;11.68;95.20;102550.63;4993421;28;20051;-72
2021/09/07 03:07:54;;;;;;;72.75;35.80;;;;;;;11.65;94.93;102549.84;4992431;28;20065;-72
2021/09/07 03:10:20;;;;;;;74.85;34.70;;;;;;;11.61;94.68;102553.69;4993373;28;20031;-72
2021/09/07 03:12:45;;;;;;;75.60;35.95;;;;;;;11.59;94.80;102544.94;4992732;28;20058;-73
2021/09/07 03:15:11;;;;;;;75.35;35.92;;;;;;;11.60;94.73;102551.97;4993034;28;20062;-72
2021/09/07 03:17:36;;;;;;;73.53;35.42;;;;;;;11.61;95.00;102540.38;4993263;28;20041;-72
2021/09/07 03:20:02;;;;;;;76.35;36.40;;;;;;;11.59;95.01;102539.59;4992507;28;20445;-73
2021/09/07 03:22:30;;;;;;;73.43;34.20;;;;;;;11.57;94.73;102538.84;4992396;28;20037;-73
2021/09/07 03:24:56;;;;;;;63.53;31.27;;;;;;;11.53;94.52;102537.34;4992543;28;20038;-75
2021/09/07 03:27:22;;;;;;;67.63;32.45;;;;;;;11.53;94.73;102539.19;4993194;28;20108;-74
2021/09/07 03:29:47;;;;;;;72.93;33.47;;;;;;;11.52;94.61;102543.63;4992500;28;20031;-72
2021/09/07 03:32:12;;;;;;;70.88;32.40;;;;;;;11.51;94.69;102544.63;4993364;28;20088;-72
2021/09/07 03:34:38;;;;;;;72.00;33.13;;;;;;;11.52;94.95;102540.13;4991813;28;20030;-72
2021/09/07 03:37:03;;;;;;;77.50;34.80;;;;;;;11.50;94.63;102540.22;4992476;28;20033;-74
2021/09/07 03:39:29;;;;;;;70.68;32.20;;;;;;;11.49;94.85;102535.00;4992948;28;20137;-72
2021/09/07 03:41:54;;;;;;;69.35;32.00;;;;;;;11.50;94.94;102542.06;4991488;28;20038;-72
2021/09/07 03:44:19;;;;;;;74.90;32.20;;;;;;;11.50;94.74;102540.22;4992102;28;20058;-73
2021/09/07 03:46:45;;;;;;;73.28;33.90;;;;;;;11.51;95.09;102538.41;4992982;28;20037;-72
2021/09/07 03:49:10;;;;;;;76.30;34.83;;;;;;;11.53;95.14;102547.16;4992359;28;20034;-72
2021/09/07 03:51:35;;;;;;;77.53;35.75;;;;;;;11.58;95.26;102545.88;4992837;28;20371;-73
2021/09/07 03:54:01;;;;;;;97.47;40.95;;;;;;;11.65;95.69;102538.34;4992605;28;20206;-73
2021/09/07 03:56:27;;;;;;;108.15;42.35;;;;;;;11.74;96.35;102542.19;4992938;28;20026;-74
2021/09/07 03:58:53;;;;;;;99.13;40.22;;;;;;;11.80;96.64;102536.44;4992176;28;20110;-74
2021/09/07 04:01:19;;;;;;;91.65;38.85;;;;;;;11.81;96.98;102552.31;4993086;28;20062;-73
2021/09/07 04:03:44;;;;;;;83.57;36.58;;;;;;;11.81;96.95;102541.66;4992596;28;20054;-73
2021/09/07 04:06:09;;;;;;;95.47;39.65;;;;;;;11.81;96.76;102539.00;4992350;28;20043;-73
2021/09/07 04:08:35;;;;;;;81.45;36.45;;;;;;;11.83;96.65;102539.72;4992787;28;20050;-73
2021/09/07 04:11:00;;;;;;;79.93;36.42;;;;;;;11.82;96.55;102534.50;4992186;28;20477;-74
2021/09/07 04:13:25;;;;;;;76.55;34.70;;;;;;;11.79;96.85;102527.59;5007964;28;20057;-74
2021/09/07 04:15:51;;;;;;;77.25;36.05;;;;;;;11.77;96.25;102533.97;4993120;28;20091;-73
2021/09/07 04:18:17;;;;;;;77.85;34.67;;;;;;;11.73;96.23;102530.66;4991758;28;20118;-74
2021/09/07 04:20:42;;;;;;;89.78;39.08;;;;;;;11.73;96.36;102530.66;4992996;28;20042;-73
2021/09/07 04:23:07;;;;;;;92.80;38.22;;;;;;;11.72;96.59;102530.75;4992431;28;20027;-74
2021/09/07 04:25:33;;;;;;;81.97;36.85;;;;;;;11.70;96.51;102538.00;4992531;28;20029;-73
2021/09/07 04:27:58;;;;;;;76.55;35.55;;;;;;;11.65;96.41;102541.00;4992246;28;20066;-74
2021/09/07 04:30:24;;;;;;;76.30;33.58;;;;;;;11.60;96.14;102543.97;4992726;28;20037;-74
2021/09/07 04:32:49;;;;;;;85.55;37.33;;;;;;;11.58;96.10;102548.53;4992684;28;20030;-73
2021/09/07 04:35:15;;;;;;;73.18;35.22;;;;;;;11.55;96.10;102551.41;4995223;28;20121;-74
2021/09/07 04:37:41;;;;;;;77.93;35.42;;;;;;;11.54;95.92;102543.53;4996679;28;20023;-72
2021/09/07 04:40:07;;;;;;;79.78;35.83;;;;;;;11.56;96.11;102547.81;4995401;28;20032;-72
2021/09/07 04:42:32;;;;;;;90.03;38.25;;;;;;;11.59;96.21;102549.41;4996086;28;20121;-72
2021/09/07 04:44:58;;;;;;;81.13;36.13;;;;;;;11.65;96.62;102554.31;4995228;28;20057;-74
2021/09/07 04:47:23;;;;;;;93.63;40.55;;;;;;;11.68;96.40;102548.78;4995677;28;20022;-74
2021/09/07 04:49:48;;;;;;;84.35;36.35;;;;;;;11.70;96.74;102552.19;4995911;28;20370;-72
2021/09/07 04:52:14;;;;;;;94.32;38.55;;;;;;;11.72;96.43;102558.28;4995205;28;20030;-73
2021/09/07 04:54:39;;;;;;;95.55;41.85;;;;;;;11.74;96.70;102553.69;4994583;28;20034;-74
2021/09/07 04:57:05;;;;;;;109.68;42.47;;;;;;;11.74;96.60;102552.84;4995165;28;20084;-73
2021/09/07 04:59:30;;;;;;;97.97;41.13;;;;;;;11.74;96.94;102551.03;4995641;28;20030;-73
2021/09/07 05:01:56;;;;;;;93.88;40.63;;;;;;;11.74;97.20;102558.19;4995705;28;20023;-74
2021/09/07 05:04:21;;;;;;;94.65;38.67;;;;;;;11.74;97.21;102552.84;4994978;28;20080;-74
2021/09/07 05:06:46;;;;;;;94.72;39.40;;;;;;;11.76;97.14;102551.81;4995298;28;20066;-74
2021/09/07 05:09:12;;;;;;;88.68;38.70;;;;;;;11.81;97.15;102551.47;4994964;28;20113;-74
2021/09/07 05:11:37;;;;;;;109.88;43.50;;;;;;;11.89;97.35;102548.28;4995226;28;20030;-73
2021/09/07 05:14:03;;;;;;;92.35;38.30;;;;;;;11.97;97.38;102551.28;4994527;28;20026;-74
2021/09/07 05:16:28;;;;;;;92.18;39.50;;;;;;;12.04;97.74;102554.41;4995659;28;20030;-74
2021/09/07 05:18:54;;;;;;;96.35;39.10;;;;;;;12.13;97.68;102545.75;4995332;28;20041;-74
2021/09/07 05:21:19;;;;;;;104.15;43.33;;;;;;;12.21;97.99;102551.41;4994445;28;20033;-74
2021/09/07 05:23:44;;;;;;;103.63;41.25;;;;;;;12.31;98.13;102557.78;4995312;28;20038;-73
2021/09/07 05:26:10;;;;;;;101.55;41.97;;;;;;;12.39;97.89;102564.38;4994395;28;20030;-74
2021/09/07 05:28:36;;;;;;;95.20;40.53;;;;;;;12.43;98.13;102556.06;4995279;28;20185;-73
2021/09/07 05:31:01;;;;;;;107.32;42.97;;;;;;;12.51;97.98;102556.38;4994929;28;20030;-73
2021/09/07 05:33:27;;;;;;;89.18;39.95;;;;;;;12.60;98.11;102559.34;4994589;28;20034;-73
2021/09/07 05:35:53;;;;;;;101.50;42.17;;;;;;;12.67;97.90;102561.47;4995097;28;20061;-73
2021/09/07 05:38:19;;;;;;;96.38;42.42;;;;;;;12.76;97.93;102556.41;4994410;28;20068;-74
2021/09/07 05:40:45;;;;;;;75.00;35.65;;;;;;;12.81;97.80;102560.47;5010018;28;20034;-74
2021/09/07 05:43:10;;;;;;;75.38;36.38;;;;;;;12.87;97.38;102565.34;4994237;28;20034;-74
2021/09/07 05:45:36;;;;;;;70.60;34.03;;;;;;;12.95;96.84;102562.13;4994211;28;20029;-74
2021/09/07 05:48:01;;;;;;;76.47;35.00;;;;;;;13.04;96.67;102571.28;4994839;28;20038;-73
2021/09/07 05:50:27;;;;;;;72.30;36.17;;;;;;;13.13;96.02;102569.75;4993890;28;20030;-74
2021/09/07 05:52:52;;;;;;;74.75;36.58;;;;;;;13.23;95.69;102565.44;4994406;28;20489;-71
2021/09/07 05:55:18;;;;;;;70.38;34.63;;;;;;;13.31;95.47;102570.19;4993920;28;20036;-72
2021/09/07 05:57:44;;;;;;;64.53;33.78;;;;;;;13.39;94.91;102565.16;4994552;28;20018;-72
2021/09/07 06:00:12;;;;;;;64.03;34.22;;;;;;;13.48;94.52;102566.28;4993788;28;20026;-73
2021/09/07 06:02:38;;;;;;;66.38;34.30;;;;;;;13.57;94.62;102568.28;4994485;28;20039;-73
2021/09/07 06:05:05;;;;;;;63.40;34.55;;;;;;;13.67;94.12;102568.41;4994187;28;20046;-72
2021/09/07 06:07:30;;;;;;;64.90;34.25;;;;;;;13.75;93.63;102571.38;4993603;28;20029;-72
2021/09/07 06:09:55;;;;;;;63.05;33.22;;;;;;;13.85;92.64;102569.69;4994069;28;20030;-73
2021/09/07 06:12:21;;;;;;;62.90;32.28;;;;;;;13.95;92.05;102572.50;4993828;28;20089;-73
2021/09/07 06:14:46;;;;;;;58.95;33.17;;;;;;;14.05;91.22;102569.97;4994263;28;20019;-73
2021/09/07 06:17:12;;;;;;;55.38;31.58;;;;;;;14.16;91.13;102569.97;4993373;28;20109;-73
2021/09/07 06:19:37;;;;;;;54.35;31.25;;;;;;;14.27;91.20;102575.34;4994195;28;20026;-73
2021/09/07 06:22:03;;;;;;;57.28;31.42;;;;;;;14.38;90.78;102569.13;4994256;28;20054;-73
2021/09/07 06:24:29;;;;;;;53.03;30.02;;;;;;;14.49;89.70;102572.78;4993780;28;20116;-73
2021/09/07 06:26:54;;;;;;;52.92;30.42;;;;;;;14.59;89.32;102571.91;4993771;28;20455;-73
2021/09/07 06:29:20;;;;;;;46.95;27.98;;;;;;;14.69;89.26;102579.22;4993193;28;20061;-73
2021/09/07 06:31:45;;;;;;;53.38;31.05;;;;;;;14.76;88.25;102573.28;4994080;28;20081;-73
2021/09/07 06:34:11;;;;;;;58.08;30.55;;;;;;;14.81;88.35;102575.56;4992299;28;20050;-74
2021/09/07 06:36:36;;;;;;;51.13;29.40;;;;;;;14.86;88.13;102580.56;4993913;28;20034;-73
2021/09/07 06:39:02;;;;;;;52.95;30.27;;;;;;;14.87;87.85;102585.78;4993623;28;20442;-73
2021/09/07 06:41:28;;;;;;;50.75;30.70;;;;;;;14.88;88.08;102582.09;4993138;28;20034;-74
2021/09/07 06:43:53;;;;;;;52.95;29.50;;;;;;;14.90;88.30;102579.31;4993796;28;20092;-73
2021/09/07 06:46:18;;;;;;;53.50;30.95;;;;;;;14.91;88.38;102576.53;4992859;28;20035;-73
2021/09/07 06:48:44;;;;;;;57.13;31.60;;;;;;;14.91;89.28;102584.56;4993785;28;20023;-72
2021/09/07 06:51:09;;;;;;;53.53;30.52;;;;;;;14.93;89.46;102584.44;4993677;28;20061;-73
2021/09/07 06:53:35;;;;;;;52.15;30.88;;;;;;;14.97;88.79;102584.06;4992689;28;20093;-73
2021/09/07 06:56:00;;;;;;;47.25;30.02;;;;;;;15.04;88.41;102586.25;4993254;28;20034;-72
2021/09/07 06:58:26;;;;;;;48.88;30.02;;;;;;;15.11;88.28;102585.59;4993312;28;20081;-73
2021/09/07 07:00:51;;;;;;;49.50;29.27;;;;;;;15.15;88.04;102584.38;4993573;28;20035;-72
2021/09/07 07:03:17;;;;;;;53.90;29.67;;;;;;;15.16;87.54;102582.53;4992885;28;20057;-72
2021/09/07 07:05:42;;;;;;;55.17;30.15;;;;;;;15.18;88.00;102585.94;4993678;28;20052;-71
2021/09/07 07:08:07;;;;;;;54.03;30.10;;;;;;;15.20;87.71;102583.13;4993367;28;20024;-72
2021/09/07 07:10:33;;;;;;;56.55;31.30;;;;;;;15.22;87.88;102587.38;4993009;28;20042;-73
2021/09/07 07:12:58;;;;;;;53.88;31.05;;;;;;;15.29;88.57;102588.59;5008214;28;20026;-73
2021/09/07 07:15:24;;;;;;;51.20;29.88;;;;;;;15.41;88.37;102586.72;4992447;28;20026;-73
2021/09/07 07:17:49;;;;;;;50.70;30.85;;;;;;;15.55;88.06;102593.59;4993182;28;20032;-72
2021/09/07 07:20:15;;;;;;;50.10;29.83;;;;;;;15.68;86.45;102594.25;4993246;28;20033;-75
2021/09/07 07:22:40;;;;;;;51.20;30.30;;;;;;;15.80;86.52;102599.59;4992228;28;20034;-72
2021/09/07 07:25:06;;;;;;;48.53;29.60;;;;;;;15.89;85.72;102593.44;4993133;28;20049;-74
2021/09/07 07:27:31;;;;;;;54.67;30.95;;;;;;;15.99;86.05;102594.38;4992562;28;20023;-75
2021/09/07 07:29:57;;;;;;;55.63;29.70;;;;;;;16.13;84.39;102601.22;4993183;28;20362;-75
2021/09/07 07:32:22;;;;;;;51.38;30.27;;;;;;;16.28;84.18;102596.34;4992467;28;20096;-72
2021/09/07 07:34:48;;;;;;;46.72;29.20;;;;;;;16.39;82.58;102601.66;4993023;28;20026;-73
2021/09/07 07:37:13;;;;;;;48.38;29.85;;;;;;;16.51;82.39;102599.72;5008067;28;20069;-74
2021/09/07 07:39:39;;;;;;;43.38;28.25;;;;;;;16.64;82.15;102602.16;4992085;28;20231;-73
2021/09/07 07:42:05;;;;;;;44.83;28.13;;;;;;;16.77;80.64;102601.91;4992662;28;20053;-73
2021/09/07 07:44:30;;;;;;;47.65;29.02;;;;;;;16.91;79.95;102604.25;4992344;28;20026;-73
2021/09/07 07:46:55;;;;;;;53.00;30.50;;;;;;;17.05;79.78;102608.38;4992935;28;20026;-73
2021/09/07 07:49:21;;;;;;;42.00;27.65;;;;;;;17.25;79.67;102609.25;4992608;28;20034;-73
2021/09/07 07:51:47;;;;;;;41.45;26.40;;;;;;;17.45;80.60;102606.56;4992971;28;20451;-73
2021/09/07 07:54:13;;;;;;;44.13;28.42;;;;;;;17.64;79.16;102605.72;4992324;28;20042;-73
2021/09/07 07:56:39;;;;;;;46.08;27.02;;;;;;;17.84;79.16;102609.25;4992171;28;20022;-73
2021/09/07 07:59:04;;;;;;;42.95;27.05;;;;;;;18.08;78.77;102614.19;4992512;28;20042;-73
2021/09/07 08:01:30;;;;;;;42.67;25.85;;;;;;;18.33;77.24;102612.69;4992625;28;20475;-73
2021/09/07 08:03:56;;;;;;;40.15;26.80;;;;;;;18.59;76.81;102614.72;5007957;28;20061;-73
2021/09/07 08:06:22;;;;;;;38.33;25.60;;;;;;;18.97;75.05;102615.53;5012422;28;20389;-73
2021/09/07 08:08:47;;;;;;;36.70;24.77;;;;;;;19.52;72.16;102616.41;5004236;28;20029;-73
2021/09/07 08:11:12;;;;;;;34.58;23.90;;;;;;;20.10;69.03;102609.59;5015662;28;20470;-73
2021/09/07 08:13:38;;;;;;;34.78;22.30;;;;;;;20.53;66.00;102607.81;5015023;28;20101;-72
2021/09/07 08:16:03;;;;;;;34.95;23.20;;;;;;;20.76;62.35;102607.25;5015901;28;20120;-72
2021/09/07 08:18:29;;;;;;;35.53;23.13;;;;;;;20.85;63.92;102617.06;5014853;28;20053;-74
2021/09/07 08:20:56;;;;;;;32.15;21.58;;;;;;;20.87;65.12;102614.22;5015249;28;20389;-72
2021/09/07 08:23:27;;;;;;;39.63;22.65;;;;;;;20.93;64.24;102616.28;5015732;28;20045;-72
2021/09/07 08:25:53;;;;;;;34.75;22.75;;;;;;;21.10;62.46;102618.00;5015739;28;20474;-72
2021/09/07 08:28:19;;;;;;;30.05;21.27;;;;;;;21.28;61.62;102619.72;5015989;28;20087;-72
2021/09/07 08:30:44;;;;;;;31.65;21.10;;;;;;;21.51;62.82;102619.94;5015042;28;20107;-73
2021/09/07 08:33:15;;;;;;;32.13;21.45;;;;;;;21.73;63.61;102614.88;5015685;28;20466;-73
2021/09/07 08:35:41;;;;;;;37.28;23.55;;;;;;;21.76;57.58;102618.06;5015672;28;20034;-72
2021/09/07 08:38:06;;;;;;;33.80;21.52;;;;;;;21.90;61.70;102613.84;5015433;28;20037;-73
2021/09/07 08:40:32;;;;;;;33.30;22.58;;;;;;;21.97;62.64;102608.56;5015076;28;20034;-73
2021/09/07 08:42:57;;;;;;;28.02;19.85;;;;;;;22.22;55.57;102609.34;5015532;28;20041;-73
2021/09/07 08:45:25;;;;;;;31.25;19.88;;;;;;;22.36;57.14;102607.81;5015239;28;20101;-72
2021/09/07 08:47:50;;;;;;;29.38;18.90;;;;;;;22.43;59.63;102608.81;5014664;28;20125;-73
2021/09/07 08:50:15;;;;;;;30.52;20.40;;;;;;;22.40;59.04;102611.03;4997867;28;20069;-72
2021/09/07 08:52:42;;;;;;;29.73;20.75;;;;;;;22.47;61.81;102614.75;5013299;28;20065;-73
2021/09/07 08:55:07;;;;;;;31.38;21.67;;;;;;;23.26;58.70;102605.69;5014354;28;20041;-73
2021/09/07 08:57:33;;;;;;;33.67;21.58;;;;;;;24.22;54.55;102606.03;5014152;28;20034;-73
2021/09/07 09:00:01;;;;;;;37.05;22.85;;;;;;;25.21;49.25;102604.72;5014896;28;20050;-73
2021/09/07 09:02:27;;;;;;;29.20;21.75;;;;;;;26.58;45.20;102608.88;5015296;28;20080;-73
2021/09/07 09:04:55;;;;;;;33.30;21.98;;;;;;;27.76;43.70;102605.75;5014423;28;20058;-74
2021/09/07 09:07:30;;;;;;;30.20;21.23;;;;;;;28.47;42.79;102600.59;4997388;28;20087;-72
2021/09/07 09:09:57;;;;;;;36.33;21.45;;;;;;;29.01;40.35;102599.25;5014099;28;20065;-74
2021/09/07 09:12:37;;;;;;;30.27;19.90;;;;;;;29.87;37.82;102596.06;5014971;28;20030;-72
2021/09/07 09:15:22;;;;;;;26.45;20.13;;;;;;;30.45;36.91;102610.47;5014988;28;20042;-73
2021/09/07 09:17:51;;;;;;;31.98;20.75;;;;;;;30.85;35.49;102613.50;5013605;28;20048;-73
2021/09/07 09:20:18;;;;;;;26.90;20.15;;;;;;;30.67;36.24;102597.91;5013328;28;20480;-73
2021/09/07 09:22:48;;;;;;;28.13;19.33;;;;;;;30.96;34.85;102606.38;4996589;28;20065;-73
2021/09/07 09:25:19;;;;;;;25.87;18.80;;;;;;;30.12;34.92;102596.03;5014859;28;20373;-72
2021/09/07 09:27:48;;;;;;;27.77;18.73;;;;;;;30.30;36.03;102599.84;5014093;28;20022;-73
2021/09/07 09:30:15;;;;;;;29.95;19.00;;;;;;;30.74;36.26;102597.81;5014620;28;20126;-72
2021/09/07 09:32:48;;;;;;;27.17;19.50;;;;;;;30.73;34.49;102596.97;5013753;28;20041;-73
2021/09/07 09:35:14;;;;;;;24.38;18.50;;;;;;;30.50;33.82;102597.72;5014223;28;20489;-72
2021/09/07 09:38:03;;;;;;;23.77;17.83;;;;;;;30.72;35.79;102597.19;5014142;28;20038;-73
2021/09/07 09:40:30;;;;;;;28.83;17.90;;;;;;;31.17;34.02;102591.31;5014586;28;20068;-73
2021/09/07 09:43:20;;;;;;;22.85;16.38;;;;;;;31.39;33.33;102590.72;5013815;28;20033;-72
2021/09/07 09:45:46;;;;;;;24.08;17.90;;;;;;;31.59;31.56;102594.00;5013893;28;20034;-72
2021/09/07 09:48:30;;;;;;;24.80;16.55;;;;;;;31.33;31.96;102580.69;5014439;28;20029;-73
2021/09/07 09:50:59;;;;;;;26.30;16.80;;;;;;;31.22;31.77;102574.09;5013403;28;20048;-73
2021/09/07 09:53:26;;;;;;;23.15;17.08;;;;;;;31.33;33.65;102584.25;5014507;28;20045;-72
2021/09/07 09:55:54;;;;;;;31.20;18.05;;;;;;;31.67;31.16;102576.28;5013654;28;20034;-73
2021/09/07 09:58:21;;;;;;;22.88;18.10;;;;;;;31.78;30.66;102569.09;5014152;28;20037;-73
2021/09/07 10:00:48;;;;;;;26.85;17.17;;;;;;;31.63;31.64;102572.34;5013377;28;20029;-74
2021/09/07 10:03:14;;;;;;;27.83;16.75;;;;;;;32.15;30.76;102574.34;5014080;28;20026;-73
2021/09/07 10:05:41;;;;;;;23.02;15.27;;;;;;;32.37;30.48;102571.75;5014205;28;20075;-73
2021/09/07 10:08:07;;;;;;;24.10;17.08;;;;;;;32.04;31.34;102566.91;5014032;28;20061;-72
2021/09/07 10:10:36;;;;;;;25.65;18.05;;;;;;;32.14;29.80;102573.50;5014198;28;20045;-72
2021/09/07 10:13:07;;;;;;;24.23;17.17;;;;;;;32.40;29.93;102564.94;5013257;28;20535;-72
2021/09/07 10:15:39;;;;;;;;;;;;;;;32.39;27.14;102563.25;5014466;28;20053;-73
2021/09/07 10:23:50;;;;;;;22.65;16.58;;;;;;;32.04;30.50;102564.16;5014012;28;20070;-73
2021/09/07 10:26:17;;;;;;;22.80;16.10;;;;;;;32.08;30.38;102568.09;5013724;28;20457;-73
2021/09/07 10:28:44;;;;;;;21.35;16.02;;;;;;;32.06;30.40;102562.84;5013711;28;20042;-73
2021/09/07 10:31:17;;;;;;;21.08;16.60;;;;;;;32.25;30.55;102558.03;5013349;28;20560;-73
2021/09/07 10:33:56;;;;;;;21.23;15.80;;;;;;;32.41;30.59;102552.81;5013389;28;20470;-73
2021/09/07 10:36:23;;;;;;;22.35;15.88;;;;;;;32.41;30.69;102555.56;5013611;28;20026;-73
2021/09/07 10:38:54;;;;;;;23.58;14.88;;;;;;;32.43;29.83;102551.50;5012828;28;20036;-74
2021/09/07 10:41:35;;;;;;;21.85;14.55;;;;;;;32.71;29.82;102544.34;5013165;28;20398;-73
2021/09/07 10:44:04;;;;;;;23.85;15.60;;;;;;;32.73;29.09;102544.09;5012717;28;20033;-73
2021/09/07 10:46:57;;;;;;;19.67;15.48;;;;;;;32.02;28.24;102549.81;5013344;28;20039;-73
2021/09/07 10:49:26;;;;;;;20.35;15.05;;;;;;;32.17;29.66;102542.75;5013211;28;20081;-72
2021/09/07 10:52:13;;;;;;;21.63;16.15;;;;;;;32.02;30.31;102547.06;5012755;28;20037;-74
2021/09/07 10:54:47;;;;;;;17.40;13.30;;;;;;;32.50;30.71;102535.66;5013429;28;20026;-72
2021/09/07 10:57:34;;;;;;;20.88;12.88;;;;;;;32.83;27.18;102531.34;5012982;28;20030;-73
2021/09/07 11:00:21;;;;;;;17.20;13.15;;;;;;;32.07;28.36;102534.25;4995036;28;20025;-73
2021/09/07 11:02:52;;;;;;;22.10;13.90;;;;;;;32.42;28.55;102525.03;5013246;28;20061;-73
2021/09/07 11:05:17;;;;;;;22.38;14.07;;;;;;;32.47;29.71;102519.63;5012563;28;20057;-73
2021/09/07 11:07:45;;;;;;;23.60;12.88;;;;;;;32.71;29.51;102525.06;5013381;28;20038;-72
2021/09/07 11:10:16;;;;;;;18.30;12.93;;;;;;;32.68;28.65;102526.38;5012754;28;20081;-73
2021/09/07 11:13:01;;;;;;;20.65;14.90;;;;;;;33.16;28.58;102526.09;5012929;28;20425;-73